Time;durP1;ratioP1;P1;durP2;ratioP2;P2;SDS_P1;SDS_P2;PMS_P1;PMS_P2;Temp;Humidity;BMP_temperature;BMP_pressure;BME280_temperature;BME280_humidity;BME280_pressure;Samples;Min_cycle;Max_cycle;Signal;HPM_P1;HPM_P2
2021/04/07 00:01:32;;;;;;;9.25;6.07;;;;;;;24.44;17.40;95977.34;5064206;28;20064;-62
2021/04/07 00:03:57;;;;;;;9.65;6.50;;;;;;;24.47;17.16;95982.16;5064913;28;20076;-62
2021/04/07 00:06:23;;;;;;;10.13;6.65;;;;;;;24.50;17.21;95983.50;5066336;28;20095;-63
2021/04/07 00:08:50;;;;;;;8.32;6.28;;;;;;;24.52;17.28;95982.06;5065478;28;20082;-60
2021/04/07 00:11:16;;;;;;;8.18;6.03;;;;;;;24.55;17.25;95989.63;5066170;28;20064;-61
2021/04/07 00:13:42;;;;;;;8.15;5.65;;;;;;;24.56;17.39;95991.25;5068759;28;20072;-61
2021/04/07 00:16:07;;;;;;;8.77;6.18;;;;;;;24.59;17.35;95998.00;5069490;28;20135;-62
2021/04/07 00:18:33;;;;;;;7.72;5.78;;;;;;;24.60;17.16;96002.38;5068219;28;20032;-62
2021/04/07 00:20:58;;;;;;;6.95;5.30;;;;;;;24.61;17.20;96003.97;5068228;28;20140;-60
2021/04/07 00:23:24;;;;;;;7.00;4.88;;;;;;;24.62;17.29;96009.13;5069686;28;20048;-61
2021/04/07 00:25:50;;;;;;;7.25;5.10;;;;;;;24.63;17.24;96016.22;5069157;28;20445;-62
2021/04/07 00:28:20;;;;;;;7.55;5.53;;;;;;;24.64;17.16;96023.31;5068570;28;20074;-62
2021/04/07 00:30:45;;;;;;;6.80;4.63;;;;;;;24.63;17.05;96009.94;5068437;28;20421;-63
2021/04/07 00:33:11;;;;;;;7.40;4.88;;;;;;;24.64;17.10;96017.84;5068850;28;20076;-62
2021/04/07 00:35:37;;;;;;;5.95;4.40;;;;;;;24.65;16.80;96013.16;5067740;28;20165;-62
2021/04/07 00:38:02;;;;;;;7.00;4.53;;;;;;;24.63;16.95;96015.41;5068123;28;20131;-64
2021/04/07 00:40:28;;;;;;;5.25;4.28;;;;;;;24.64;16.88;96025.25;5068441;28;20044;-62
2021/04/07 00:42:54;;;;;;;5.10;3.67;;;;;;;24.62;16.75;96033.78;5069109;28;20041;-62
2021/04/07 00:45:20;;;;;;;5.22;3.78;;;;;;;24.63;16.59;96034.59;5068661;28;20047;-62
2021/04/07 00:47:49;;;;;;;6.13;4.70;;;;;;;24.62;16.76;96033.78;5068309;28;20318;-62
2021/04/07 00:50:15;;;;;;;5.82;4.00;;;;;;;24.62;16.99;96035.72;5068460;28;20102;-62
2021/04/07 00:52:41;;;;;;;5.55;3.63;;;;;;;24.61;16.70;96042.31;5068260;28;20052;-63
2021/04/07 00:55:07;;;;;;;4.40;3.63;;;;;;;24.59;16.56;96039.88;5068093;28;20048;-62
2021/04/07 00:57:32;;;;;;;4.82;3.60;;;;;;;24.55;17.25;96038.91;5067425;28;20056;-59
2021/04/07 00:59:58;;;;;;;7.15;3.75;;;;;;;24.57;17.12;96042.13;5066753;28;20044;-62
2021/04/07 01:02:25;;;;;;;4.50;3.65;;;;;;;24.55;16.92;96046.31;5068901;28;20658;-62
2021/04/07 01:04:51;;;;;;;5.85;3.45;;;;;;;24.52;16.87;96038.75;5036889;28;20048;-62
2021/04/07 01:07:16;;;;;;;4.28;3.35;;;;;;;24.50;17.07;96044.53;5048035;28;20156;-63
2021/04/07 01:09:42;;;;;;;3.72;2.92;;;;;;;24.49;17.07;96051.13;5047495;28;20136;-62
2021/04/07 01:12:08;;;;;;;3.58;2.95;;;;;;;24.46;16.75;96043.53;5047359;28;20179;-62
2021/04/07 01:14:34;;;;;;;5.40;3.22;;;;;;;24.44;17.18;96045.78;5048171;28;20037;-61
2021/04/07 01:17:00;;;;;;;3.95;3.15;;;;;;;24.42;16.82;96048.81;5047514;28;20099;-59
2021/04/07 01:19:26;;;;;;;3.60;2.63;;;;;;;24.40;17.02;96050.28;5062936;28;20505;-61
2021/04/07 01:21:52;;;;;;;3.60;2.78;;;;;;;24.38;16.87;96042.38;5048198;28;20124;-55
2021/04/07 01:24:18;;;;;;;3.80;2.58;;;;;;;24.35;17.11;96039.47;5047311;28;20045;-55
2021/04/07 01:26:44;;;;;;;3.42;2.80;;;;;;;24.33;17.06;96045.25;5062440;28;20083;-58
2021/04/07 01:29:10;;;;;;;3.42;2.70;;;;;;;24.31;16.85;96052.97;5047260;28;20528;-56
2021/04/07 01:31:51;;;;;;;2.35;2.15;;;;;;;24.26;17.09;96053.94;5047810;28;20130;-59
2021/04/07 01:34:18;;;;;;;3.47;2.67;;;;;;;24.24;17.02;96050.72;5056849;28;20047;-56
2021/04/07 01:36:43;;;;;;;2.63;2.10;;;;;;;24.22;17.20;96063.06;5066538;28;20396;-55
2021/04/07 01:39:09;;;;;;;3.72;2.50;;;;;;;24.18;17.16;96060.19;5067562;28;20068;-56
2021/04/07 01:41:34;;;;;;;2.83;2.38;;;;;;;24.16;17.02;96056.13;5067087;28;20048;-55
2021/04/07 01:44:00;;;;;;;2.42;2.22;;;;;;;24.14;17.25;96061.13;5082513;28;20515;-62
2021/04/07 01:46:26;;;;;;;2.22;2.03;;;;;;;24.11;17.50;96059.81;5082475;28;20072;-62
2021/04/07 01:48:51;;;;;;;2.47;1.90;;;;;;;24.07;17.35;96059.66;5083327;28;20143;-63
2021/04/07 01:51:17;;;;;;;1.98;1.63;;;;;;;24.04;17.24;96060.25;5065061;28;20506;-61
2021/04/07 01:53:42;;;;;;;3.05;2.05;;;;;;;24.01;17.31;96051.88;5065425;28;20158;-63
2021/04/07 01:56:09;;;;;;;1.98;1.60;;;;;;;23.97;17.41;96057.19;5067010;28;20060;-62
2021/04/07 01:58:35;;;;;;;1.88;1.77;;;;;;;23.94;17.56;96055.06;5066781;28;20060;-62
2021/04/07 02:01:01;;;;;;;1.92;1.73;;;;;;;23.91;17.33;96057.59;5066954;28;20075;-63
2021/04/07 02:03:26;;;;;;;2.67;2.30;;;;;;;23.90;17.57;96069.69;5066657;28;20044;-63
2021/04/07 02:05:52;;;;;;;1.80;1.60;;;;;;;23.87;17.41;96065.66;5067672;28;20080;-62
2021/04/07 02:08:17;;;;;;;2.05;1.83;;;;;;;23.83;17.52;96065.44;5066450;28;20082;-61
2021/04/07 02:10:43;;;;;;;2.33;1.75;;;;;;;23.81;17.54;96055.94;5066574;28;20091;-62
2021/04/07 02:13:08;;;;;;;1.75;1.65;;;;;;;23.76;17.40;96059.63;5066951;28;20524;-62
2021/04/07 02:15:34;;;;;;;2.15;1.50;;;;;;;23.74;17.23;96067.31;5066637;28;20093;-62
2021/04/07 02:18:00;;;;;;;1.67;1.55;;;;;;;23.71;17.58;96072.59;5066384;28;20543;-62
2021/04/07 02:20:25;;;;;;;1.65;1.30;;;;;;;23.67;17.62;96070.47;5066678;28;20511;-63
2021/04/07 02:22:52;;;;;;;1.73;1.42;;;;;;;23.64;17.32;96067.56;5066969;28;20139;-61
2021/04/07 02:25:18;;;;;;;1.77;1.67;;;;;;;23.61;17.53;96065.44;5066376;28;20086;-62
2021/04/07 02:27:44;;;;;;;2.33;1.65;;;;;;;23.57;17.37;96078.94;5066088;28;20040;-62
2021/04/07 02:30:14;;;;;;;1.10;1.10;;;;;;;23.52;17.42;96076.31;5066714;28;20056;-62
2021/04/07 02:32:40;;;;;;;1.48;1.38;;;;;;;23.48;17.76;96073.38;5066064;28;20043;-62
2021/04/07 02:35:06;;;;;;;1.77;1.40;;;;;;;23.46;17.49;96077.53;5065542;28;20048;-61
2021/04/07 02:37:32;;;;;;;1.40;1.30;;;;;;;23.43;17.40;96081.72;5066353;28;20486;-61
2021/04/07 02:40:00;;;;;;;1.77;1.67;;;;;;;23.39;17.46;96079.91;5065992;28;20048;-62
2021/04/07 02:42:26;;;;;;;1.83;1.50;;;;;;;23.36;17.24;96083.25;5066126;28;20371;-64
2021/04/07 02:44:52;;;;;;;1.75;1.52;;;;;;;23.31;17.74;96073.25;5065571;28;20597;-62
2021/04/07 02:47:17;;;;;;;1.75;1.50;;;;;;;23.29;17.54;96083.69;5066219;28;20072;-62
2021/04/07 02:49:44;;;;;;;1.95;1.33;;;;;;;23.25;17.64;96077.22;5065961;28;20052;-62
2021/04/07 02:52:10;;;;;;;1.17;1.13;;;;;;;23.23;17.63;96082.19;5065617;28;20041;-64
2021/04/07 02:54:36;;;;;;;1.75;1.20;;;;;;;23.21;17.53;96090.69;5066179;28;20048;-62
2021/04/07 02:57:05;;;;;;;1.20;1.10;;;;;;;23.17;17.49;96095.13;5065694;28;20055;-61
2021/04/07 02:59:31;;;;;;;1.40;1.30;;;;;;;23.16;17.76;96099.00;5065572;28;20047;-63
2021/04/07 03:01:56;;;;;;;1.63;1.00;;;;;;;23.13;17.54;96099.59;5065852;28;20048;-60
2021/04/07 03:04:22;;;;;;;1.33;1.15;;;;;;;23.11;17.76;96107.28;5065902;28;20102;-60
2021/04/07 03:06:47;;;;;;;2.40;1.50;;;;;;;23.08;17.37;96110.66;5065121;28;20526;-62
2021/04/07 03:09:13;;;;;;;1.20;1.10;;;;;;;23.06;17.78;96115.63;5065568;28;20071;-62
2021/04/07 03:11:38;;;;;;;1.20;1.10;;;;;;;23.02;17.83;96122.81;5066298;28;20071;-62
2021/04/07 03:14:05;;;;;;;1.30;1.20;;;;;;;22.98;18.01;96121.75;5065621;28;20082;-60
2021/04/07 03:16:30;;;;;;;1.02;1.02;;;;;;;22.96;17.68;96124.78;5065488;28;20130;-59
2021/04/07 03:18:56;;;;;;;1.90;1.42;;;;;;;22.93;17.80;96135.53;5065535;28;20539;-62
2021/04/07 03:21:21;;;;;;;0.95;0.95;;;;;;;22.89;18.07;96132.59;5065856;28;20113;-61
2021/04/07 03:23:47;;;;;;;1.67;1.13;;;;;;;22.86;17.90;96127.75;5080901;28;20087;-61
2021/04/07 03:26:13;;;;;;;0.93;0.93;;;;;;;22.82;18.00;96134.94;5065712;28;20048;-61
2021/04/07 03:28:38;;;;;;;1.00;0.90;;;;;;;22.79;18.06;96143.72;5065840;28;20076;-62
2021/04/07 03:31:04;;;;;;;1.15;1.10;;;;;;;22.76;18.00;96141.63;5065700;28;20265;-61
2021/04/07 03:33:32;;;;;;;1.10;1.00;;;;;;;22.73;17.90;96144.94;5065429;28;20418;-61
2021/04/07 03:35:58;;;;;;;0.90;0.90;;;;;;;22.67;18.09;96155.16;5065950;28;20045;-61
2021/04/07 03:38:24;;;;;;;1.20;1.00;;;;;;;22.63;18.04;96154.13;5066435;28;20973;-61
2021/04/07 03:40:50;;;;;;;1.40;1.00;;;;;;;22.59;18.10;96159.41;5065136;28;20056;-61
2021/04/07 03:43:17;;;;;;;0.70;0.70;;;;;;;22.56;18.09;96156.47;5065415;28;20088;-61
2021/04/07 03:45:46;;;;;;;1.08;0.90;;;;;;;22.53;18.08;96166.06;5067771;28;20052;-62
2021/04/07 03:48:13;;;;;;;1.20;1.08;;;;;;;22.49;18.24;96169.72;5069545;28;20178;-62
2021/04/07 03:50:39;;;;;;;0.95;0.93;;;;;;;22.46;18.33;96176.56;5069513;28;20101;-60
2021/04/07 03:53:05;;;;;;;0.80;0.80;;;;;;;22.41;18.26;96180.19;5069948;28;20052;-59
2021/04/07 03:55:31;;;;;;;0.98;0.90;;;;;;;22.39;18.31;96179.69;5068935;28;20416;-58
2021/04/07 03:57:56;;;;;;;0.98;0.80;;;;;;;22.36;18.29;96187.66;5069304;28;20072;-59
2021/04/07 04:00:22;;;;;;;0.93;0.93;;;;;;;22.33;18.33;96188.28;5069536;28;20127;-58
2021/04/07 04:02:48;;;;;;;0.80;0.80;;;;;;;22.29;18.64;96192.72;5068317;28;20052;-60
2021/04/07 04:05:13;;;;;;;0.70;0.70;;;;;;;22.24;18.32;96202.59;5069045;28;20361;-60
2021/04/07 04:07:39;;;;;;;0.68;0.63;;;;;;;22.22;18.34;96201.25;5068922;28;20535;-56
2021/04/07 04:10:05;;;;;;;0.90;0.80;;;;;;;22.18;18.24;96201.03;5069526;28;20131;-61
2021/04/07 04:12:31;;;;;;;0.85;0.80;;;;;;;22.15;18.49;96209.81;5069185;28;20032;-60
2021/04/07 04:14:56;;;;;;;1.58;0.70;;;;;;;22.12;18.45;96209.59;5068202;28;20496;-59
2021/04/07 04:17:22;;;;;;;1.17;0.77;;;;;;;22.09;18.42;96204.72;5069197;28;20094;-60
2021/04/07 04:19:49;;;;;;;0.70;0.70;;;;;;;22.05;18.54;96218.16;5068710;28;20048;-59
2021/04/07 04:22:14;;;;;;;0.60;0.60;;;;;;;22.01;18.59;96217.16;5068929;28;20087;-57
2021/04/07 04:24:40;;;;;;;0.60;0.60;;;;;;;21.99;18.44;96222.09;5067352;28;20076;-57
2021/04/07 04:27:06;;;;;;;0.65;0.65;;;;;;;21.95;18.66;96224.59;5068897;28;20460;-57
2021/04/07 04:29:32;;;;;;;0.40;0.40;;;;;;;21.91;18.66;96226.28;5068557;28;20056;-55
2021/04/07 04:31:57;;;;;;;0.60;0.60;;;;;;;21.89;18.75;96224.97;5068698;28;20075;-56
2021/04/07 04:34:23;;;;;;;0.65;0.65;;;;;;;21.85;18.66;96228.28;5069531;28;20471;-58
2021/04/07 04:36:48;;;;;;;0.50;0.50;;;;;;;21.83;18.81;96224.22;5068242;28;20056;-58
2021/04/07 04:39:14;;;;;;;0.80;0.80;;;;;;;21.79;18.48;96234.09;5068604;28;20414;-55
2021/04/07 04:41:39;;;;;;;0.73;0.60;;;;;;;21.76;18.69;96237.44;5068486;28;20044;-55
2021/04/07 04:44:05;;;;;;;0.57;0.57;;;;;;;21.74;18.67;96237.72;5068653;28;20080;-55
2021/04/07 04:46:31;;;;;;;0.50;0.50;;;;;;;21.69;18.98;96251.44;5068228;28;20098;-57
2021/04/07 04:48:56;;;;;;;0.57;0.57;;;;;;;21.66;18.74;96252.00;5066223;28;20087;-58
2021/04/07 04:51:22;;;;;;;1.13;0.50;;;;;;;21.63;18.90;96253.41;5049886;28;20061;-56
2021/04/07 04:53:48;;;;;;;0.50;0.50;;;;;;;21.60;18.76;96253.16;5056180;28;20205;-60
2021/04/07 04:56:13;;;;;;;0.82;0.70;;;;;;;21.59;18.86;96267.91;5067012;28;20076;-60
2021/04/07 04:58:39;;;;;;;2.70;2.33;;;;;;;21.53;18.99;96260.91;5067478;28;20079;-53
2021/04/07 05:01:05;;;;;;;3.17;1.63;;;;;;;21.50;19.04;96265.03;5067451;28;20074;-52
2021/04/07 05:03:30;;;;;;;1.23;1.20;;;;;;;21.47;18.89;96267.53;5066245;28;20481;-60
2021/04/07 05:05:56;;;;;;;1.77;1.42;;;;;;;21.41;19.07;96273.00;5067250;28;20503;-59
2021/04/07 05:08:21;;;;;;;1.73;1.50;;;;;;;21.38;19.11;96264.63;5067169;28;20155;-57
2021/04/07 05:10:48;;;;;;;1.85;1.75;;;;;;;21.32;18.76;96274.75;5067635;28;20048;-62
2021/04/07 05:13:14;;;;;;;3.10;2.63;;;;;;;21.31;18.89;96285.94;5067489;28;20121;-59
2021/04/07 05:15:39;;;;;;;2.25;2.00;;;;;;;21.28;19.15;96289.25;5067319;28;20524;-61
2021/04/07 05:18:15;;;;;;;2.60;2.40;;;;;;;21.25;19.18;96302.34;5066890;28;20205;-61
2021/04/07 05:20:41;;;;;;;3.72;2.40;;;;;;;21.25;19.25;96301.56;5067517;28;20105;-60
2021/04/07 05:23:07;;;;;;;2.92;2.70;;;;;;;21.24;19.41;96305.38;5067720;28;20048;-57
2021/04/07 05:25:32;;;;;;;2.63;2.42;;;;;;;21.23;19.31;96304.56;5067215;28;20045;-59
2021/04/07 05:28:01;;;;;;;3.15;2.85;;;;;;;21.24;19.25;96310.81;5067288;28;20084;-60
2021/04/07 05:30:27;;;;;;;5.40;2.65;;;;;;;21.25;19.21;96307.81;5067233;28;20446;-55
2021/04/07 05:32:52;;;;;;;2.70;2.50;;;;;;;21.28;19.11;96311.06;5068012;28;20165;-60
2021/04/07 05:35:18;;;;;;;3.53;2.25;;;;;;;21.29;19.08;96316.19;5066423;28;20137;-61
2021/04/07 05:37:44;;;;;;;2.60;2.40;;;;;;;21.33;19.34;96324.59;5066818;28;20585;-61
2021/04/07 05:40:09;;;;;;;5.85;3.90;;;;;;;21.37;19.29;96326.44;5067293;28;20037;-61
2021/04/07 05:42:35;;;;;;;8.23;3.92;;;;;;;21.44;19.39;96326.16;5067366;28;20048;-61
2021/04/07 05:45:01;;;;;;;5.50;5.00;;;;;;;21.50;19.26;96335.06;5066133;28;20064;-60
2021/04/07 05:47:26;;;;;;;9.88;5.30;;;;;;;21.58;19.36;96339.88;5065111;28;20080;-61
2021/04/07 05:49:52;;;;;;;5.28;4.18;;;;;;;21.63;19.24;96346.09;5066520;28;20083;-61
2021/04/07 05:52:18;;;;;;;5.05;4.50;;;;;;;21.73;19.27;96350.59;5054795;28;20084;-53
2021/04/07 05:54:44;;;;;;;4.53;3.58;;;;;;;21.80;19.25;96358.41;5063310;28;20052;-60
2021/04/07 05:57:09;;;;;;;4.45;3.60;;;;;;;21.88;19.21;96365.13;5065185;28;20113;-59
2021/04/07 05:59:35;;;;;;;5.25;3.58;;;;;;;21.95;19.17;96363.66;5065053;28;20064;-58
2021/04/07 06:02:02;;;;;;;2.97;2.63;;;;;;;22.02;18.94;96363.31;5065194;28;20157;-61
2021/04/07 06:04:27;;;;;;;3.83;2.90;;;;;;;22.10;18.92;96367.28;5066484;28;20523;-60
2021/04/07 06:06:53;;;;;;;3.70;3.20;;;;;;;22.18;18.94;96372.91;5067390;28;20110;-60
2021/04/07 06:09:18;;;;;;;4.07;2.90;;;;;;;22.25;18.85;96364.38;5064960;28;20094;-60
2021/04/07 06:11:44;;;;;;;3.13;2.80;;;;;;;22.33;18.80;96373.81;5065559;28;20218;-63
2021/04/07 06:14:09;;;;;;;4.20;2.55;;;;;;;22.41;18.78;96376.69;5066717;28;20781;-62
2021/04/07 06:16:35;;;;;;;2.90;2.50;;;;;;;22.48;18.62;96381.78;5065617;28;20079;-61
2021/04/07 06:19:01;;;;;;;3.80;2.45;;;;;;;22.56;18.50;96377.56;5066119;28;20052;-59
2021/04/07 06:21:26;;;;;;;3.03;2.30;;;;;;;22.64;18.48;96385.09;5065035;28;20095;-63
2021/04/07 06:23:52;;;;;;;2.75;2.40;;;;;;;22.73;18.58;96387.94;5057751;28;20076;-59
2021/04/07 06:26:17;;;;;;;3.25;2.60;;;;;;;22.81;18.56;96392.75;5052478;28;20088;-62
2021/04/07 06:28:43;;;;;;;2.38;2.17;;;;;;;22.90;18.43;96381.94;5065608;28;20535;-58
2021/04/07 06:31:09;;;;;;;2.50;2.00;;;;;;;22.97;18.52;96402.31;5065650;28;20052;-61
2021/04/07 06:33:37;;;;;;;5.88;2.83;;;;;;;23.05;18.44;96400.84;5065396;28;20146;-55
2021/04/07 06:36:07;;;;;;;7.20;3.38;;;;;;;23.11;18.30;96417.94;5058554;28;20618;-63
2021/04/07 06:38:33;;;;;;;3.75;2.85;;;;;;;23.17;18.50;96435.88;5050679;28;20052;-64
2021/04/07 06:40:59;;;;;;;5.90;2.80;;;;;;;23.24;18.22;96445.31;5065299;28;20052;-65
2021/04/07 06:43:26;;;;;;;4.82;2.75;;;;;;;23.31;18.10;96447.66;5066431;28;20160;-63
2021/04/07 06:45:52;;;;;;;2.67;2.45;;;;;;;23.39;18.09;96449.72;5066783;28;20056;-58
2021/04/07 06:48:18;;;;;;;3.72;2.60;;;;;;;23.45;18.08;96450.44;5066491;28;20048;-62
2021/04/07 06:50:46;;;;;;;6.75;3.00;;;;;;;23.52;17.81;96447.31;5066026;28;20049;-59
2021/04/07 06:53:11;;;;;;;5.72;2.67;;;;;;;23.57;17.98;96453.50;5065874;28;20154;-61
2021/04/07 06:55:38;;;;;;;3.53;2.83;;;;;;;23.62;17.99;96456.13;5047975;28;20138;-61
2021/04/07 06:58:06;;;;;;;5.25;2.63;;;;;;;23.64;18.23;96453.91;5060723;28;20057;-55
2021/04/07 07:00:33;;;;;;;4.82;2.90;;;;;;;23.68;17.88;96462.31;5064570;28;20040;-58
2021/04/07 07:03:09;;;;;;;4.68;2.60;;;;;;;23.73;18.28;96464.16;5065549;28;20071;-59
2021/04/07 07:05:36;;;;;;;6.43;2.53;;;;;;;23.78;18.18;96467.63;5065816;28;20527;-61
2021/04/07 07:08:06;;;;;;;5.45;2.30;;;;;;;23.85;17.86;96470.78;5065134;28;20534;-61
2021/04/07 07:10:55;;;;;;;3.03;2.45;;;;;;;23.91;17.84;96479.69;5065285;28;20524;-61
2021/04/07 07:13:21;;;;;;;4.50;2.10;;;;;;;23.96;17.81;96485.06;5055847;28;20419;-61
2021/04/07 07:15:47;;;;;;;4.60;2.30;;;;;;;24.01;17.87;96495.09;5065901;28;20202;-61
2021/04/07 07:18:22;;;;;;;6.72;5.32;;;;;;;24.08;18.03;96506.47;5065485;28;20574;-61
2021/04/07 07:20:48;;;;;;;13.05;8.77;;;;;;;24.14;18.43;96497.03;5065334;28;20056;-61
2021/04/07 07:23:27;;;;;;;11.75;8.40;;;;;;;24.21;18.65;96508.38;5066085;28;20093;-61
2021/04/07 07:26:09;;;;;;;11.57;8.57;;;;;;;24.28;18.83;96507.97;5066415;28;20048;-62
2021/04/07 07:28:53;;;;;;;18.35;11.45;;;;;;;24.36;18.97;96512.72;5065899;28;20159;-61
2021/04/07 07:31:25;;;;;;;18.03;11.93;;;;;;;24.42;19.39;96516.97;5049872;28;20055;-62
2021/04/07 07:33:55;;;;;;;16.75;11.13;;;;;;;24.48;19.97;96517.69;5051719;28;20724;-61
2021/04/07 07:36:21;;;;;;;21.38;11.85;;;;;;;24.55;19.95;96520.84;5058425;28;20467;-61
2021/04/07 07:38:53;;;;;;;26.05;13.23;;;;;;;24.60;20.03;96518.03;5064391;28;20063;-62
2021/04/07 07:41:20;;;;;;;19.70;12.10;;;;;;;24.66;20.25;96521.47;5062983;28;20108;-62
2021/04/07 07:43:46;;;;;;;19.70;11.25;;;;;;;24.68;20.33;96525.53;5045360;28;20275;-63
2021/04/07 07:46:13;;;;;;;25.70;11.45;;;;;;;24.71;20.08;96528.75;5065013;28;20475;-61
2021/04/07 07:48:40;;;;;;;19.55;11.10;;;;;;;24.73;20.28;96534.75;5064712;28;20135;-63
2021/04/07 07:51:16;;;;;;;17.33;9.57;;;;;;;24.76;19.53;96529.44;5063234;28;20128;-66
2021/04/07 07:53:43;;;;;;;12.85;7.93;;;;;;;24.79;19.29;96530.78;5064820;28;20048;-61
2021/04/07 07:56:09;;;;;;;17.58;8.55;;;;;;;24.80;18.97;96535.94;5064923;28;20036;-63
2021/04/07 07:58:40;;;;;;;17.60;7.63;;;;;;;24.81;19.28;96534.03;5062826;28;20067;-64
2021/04/07 08:01:06;;;;;;;16.70;8.10;;;;;;;24.84;18.82;96541.59;5063877;28;20094;-64
2021/04/07 08:03:32;;;;;;;12.48;7.18;;;;;;;24.84;18.61;96541.59;5064990;28;20045;-63
2021/04/07 08:06:00;;;;;;;13.75;7.10;;;;;;;24.85;18.65;96532.28;5064891;28;20566;-61
2021/04/07 08:08:26;;;;;;;13.98;7.88;;;;;;;24.84;18.61;96542.41;5065367;28;20052;-60
2021/04/07 08:10:53;;;;;;;12.95;6.45;;;;;;;24.84;18.67;96547.91;5066069;28;20049;-56
2021/04/07 08:13:19;;;;;;;10.90;6.93;;;;;;;24.84;18.42;96552.56;5063455;28;20051;-58
2021/04/07 08:15:44;;;;;;;12.80;6.72;;;;;;;24.83;18.49;96549.03;5064412;28;20136;-60
2021/04/07 08:18:10;;;;;;;14.90;6.80;;;;;;;24.81;18.61;96564.97;5063773;28;20083;-60
2021/04/07 08:20:36;;;;;;;11.20;6.85;;;;;;;24.79;18.56;96567.19;5064652;28;20056;-59
2021/04/07 08:23:02;;;;;;;8.68;5.97;;;;;;;24.79;18.37;96571.88;5062843;28;20087;-60
2021/04/07 08:25:28;;;;;;;10.77;5.88;;;;;;;24.76;18.42;96572.47;5062434;28;20084;-63
2021/04/07 08:27:54;;;;;;;9.18;5.53;;;;;;;24.75;18.27;96576.34;5047388;28;20044;-64
2021/04/07 08:30:21;;;;;;;10.73;5.25;;;;;;;24.73;18.59;96573.91;5063308;28;20044;-65
2021/04/07 08:32:49;;;;;;;10.75;5.68;;;;;;;24.72;18.69;96576.94;5066062;28;20273;-67
2021/04/07 08:35:15;;;;;;;8.88;4.70;;;;;;;24.71;18.38;96580.81;5068532;28;20112;-62
2021/04/07 08:37:40;;;;;;;9.25;4.70;;;;;;;24.65;18.13;96580.91;5065769;28;20048;-65
2021/04/07 08:40:13;;;;;;;8.27;5.00;;;;;;;24.64;18.53;96583.97;5067105;28;20142;-64
2021/04/07 08:42:39;;;;;;;11.68;4.78;;;;;;;24.61;18.29;96581.81;5068722;28;20044;-65
2021/04/07 08:45:06;;;;;;;10.10;4.75;;;;;;;24.59;18.26;96600.47;5068474;28;20519;-64
2021/04/07 08:47:43;;;;;;;8.38;4.00;;;;;;;24.57;18.34;96592.56;5066898;28;20036;-64
2021/04/07 08:50:09;;;;;;;9.18;4.10;;;;;;;24.54;18.19;96600.59;5052270;28;20164;-64
2021/04/07 08:52:48;;;;;;;6.63;3.83;;;;;;;24.50;17.98;96619.56;5067369;28;20194;-65
2021/04/07 08:55:17;;;;;;;5.85;4.00;;;;;;;24.49;18.06;96617.91;5046418;28;20114;-62
2021/04/07 08:57:43;;;;;;;8.27;3.90;;;;;;;24.46;17.83;96618.50;5047800;28;20131;-65
2021/04/07 09:00:10;;;;;;;5.72;3.30;;;;;;;24.44;17.75;96626.22;5047926;28;20045;-63
2021/04/07 09:02:49;;;;;;;6.30;3.17;;;;;;;24.40;17.92;96627.94;5047911;28;20076;-65
2021/04/07 09:05:15;;;;;;;6.45;2.92;;;;;;;24.39;17.98;96626.31;5048365;28;20053;-66
2021/04/07 09:07:42;;;;;;;5.78;3.00;;;;;;;24.36;17.77;96637.84;5047949;28;20582;-66
2021/04/07 09:10:09;;;;;;;5.55;2.80;;;;;;;24.32;17.83;96634.91;5048208;28;20474;-66
2021/04/07 09:12:35;;;;;;;6.22;2.97;;;;;;;24.31;18.03;96621.53;5047364;28;20590;-64
2021/04/07 09:15:10;;;;;;;6.13;3.05;;;;;;;24.26;18.04;96628.72;5046350;28;20123;-65
2021/04/07 09:17:46;;;;;;;4.75;3.28;;;;;;;24.24;17.84;96627.38;5047946;28;20701;-63
2021/04/07 09:20:31;;;;;;;4.28;2.90;;;;;;;24.20;17.88;96632.66;5047702;28;20059;-65
2021/04/07 09:23:07;;;;;;;5.05;2.92;;;;;;;24.17;17.85;96624.25;5047597;28;20432;-65
2021/04/07 09:25:32;;;;;;;3.38;2.35;;;;;;;24.16;17.84;96636.28;5047610;28;20123;-64
2021/04/07 09:28:06;;;;;;;5.05;2.38;;;;;;;24.10;17.82;96630.13;5047152;28;20480;-64
2021/04/07 09:30:43;;;;;;;6.22;2.25;;;;;;;24.07;17.96;96633.44;5055601;28;20050;-66
2021/04/07 09:33:08;;;;;;;3.42;2.00;;;;;;;24.04;17.86;96631.31;5067695;28;20086;-66
2021/04/07 09:35:34;;;;;;;4.30;2.30;;;;;;;24.01;17.89;96630.00;5083467;28;20048;-66
2021/04/07 09:37:59;;;;;;;4.50;2.10;;;;;;;23.97;17.55;96636.34;5067405;28;20063;-64
2021/04/07 09:40:25;;;;;;;2.67;2.00;;;;;;;23.94;17.71;96636.97;5068222;28;20057;-64
2021/04/07 09:42:53;;;;;;;3.90;1.83;;;;;;;23.91;17.95;96634.81;5066743;28;20040;-64
2021/04/07 09:45:22;;;;;;;3.53;2.10;;;;;;;23.88;17.93;96628.00;5066629;28;20064;-66
2021/04/07 09:47:55;;;;;;;3.42;1.85;;;;;;;23.83;17.89;96637.13;5067053;28;20051;-66
2021/04/07 09:50:21;;;;;;;3.50;2.00;;;;;;;23.81;17.53;96657.69;5066799;28;20487;-66
2021/04/07 09:52:47;;;;;;;1.75;1.63;;;;;;;23.76;17.59;96655.00;5066835;28;20052;-64
2021/04/07 09:55:23;;;;;;;3.35;2.00;;;;;;;23.71;17.87;96663.28;5066564;28;20041;-63
2021/04/07 09:58:02;;;;;;;2.83;1.45;;;;;;;23.66;17.68;96655.97;5066843;28;20040;-66
2021/04/07 10:00:32;;;;;;;2.20;1.58;;;;;;;23.61;17.79;96662.34;5066869;28;20546;-65
2021/04/07 10:02:58;;;;;;;3.20;2.00;;;;;;;23.59;17.74;96666.47;5066726;28;20519;-64
2021/04/07 10:05:31;;;;;;;2.83;1.70;;;;;;;23.54;17.91;96659.16;5067734;28;20079;-65
2021/04/07 10:08:11;;;;;;;1.80;1.58;;;;;;;23.50;17.80;96663.59;5067362;28;20534;-59
2021/04/07 10:10:37;;;;;;;2.97;1.52;;;;;;;23.47;17.79;96662.25;5066472;28;20584;-66
2021/04/07 10:13:02;;;;;;;1.70;1.30;;;;;;;23.44;17.97;96665.56;5066623;28;20040;-62
2021/04/07 10:15:28;;;;;;;2.15;1.35;;;;;;;23.40;17.81;96663.72;5067075;28;20072;-65
2021/04/07 10:17:54;;;;;;;2.63;1.45;;;;;;;23.37;17.91;96670.59;5067400;28;20045;-64
2021/04/07 10:20:27;;;;;;;2.63;1.65;;;;;;;23.33;17.89;96669.56;5065153;28;20076;-64
2021/04/07 10:22:52;;;;;;;1.95;1.40;;;;;;;23.31;17.89;96666.31;5067747;28;20143;-65
2021/04/07 10:25:24;;;;;;;1.98;1.45;;;;;;;23.25;17.88;96662.84;5066647;28;20167;-61
2021/04/07 10:27:50;;;;;;;2.92;1.30;;;;;;;23.23;17.83;96675.97;5065260;28;20052;-65
2021/04/07 10:30:16;;;;;;;1.83;1.27;;;;;;;23.20;17.94;96656.66;5066444;28;20056;-63
2021/04/07 10:32:45;;;;;;;2.75;1.70;;;;;;;23.15;18.04;96651.22;5065746;28;20051;-60
2021/04/07 10:35:21;;;;;;;1.60;1.13;;;;;;;23.13;18.19;96658.91;5066794;28;20040;-63
2021/04/07 10:37:53;;;;;;;2.22;1.42;;;;;;;23.08;17.83;96654.34;5066267;28;20040;-63
2021/04/07 10:40:24;;;;;;;2.38;1.50;;;;;;;23.02;18.13;96652.78;5060289;28;20094;-60
2021/04/07 10:42:49;;;;;;;8.82;1.77;;;;;;;22.99;18.19;96653.34;5066693;28;20041;-59
2021/04/07 10:45:19;;;;;;;16.73;8.93;;;;;;;22.94;18.20;96659.66;5065896;28;20067;-63
2021/04/07 10:47:45;;;;;;;7.32;4.28;;;;;;;22.93;18.00;96654.50;5064707;28;20467;-58
2021/04/07 10:50:11;;;;;;;76.47;54.58;;;;;;;22.87;18.27;96645.56;5066303;28;20078;-58
2021/04/07 10:52:41;;;;;;;92.47;53.35;;;;;;;22.86;18.45;96652.94;5081682;28;20131;-59
2021/04/07 10:55:12;;;;;;;77.97;39.55;;;;;;;22.84;18.34;96646.97;5053454;28;20049;-61
2021/04/07 10:57:39;;;;;;;57.10;30.85;;;;;;;22.84;18.70;96651.59;5066173;28;20147;-59
2021/04/07 11:00:09;;;;;;;54.05;28.23;;;;;;;22.83;18.46;96650.78;5065758;28;20646;-62
2021/04/07 11:02:42;;;;;;;49.88;24.65;;;;;;;22.82;18.51;96648.34;5065340;28;20872;-59
2021/04/07 11:05:14;;;;;;;42.28;23.45;;;;;;;22.82;18.92;96659.28;5065738;28;20044;-61
2021/04/07 11:07:40;;;;;;;42.45;23.10;;;;;;;22.82;18.67;96659.28;5065550;28;20052;-57
2021/04/07 11:10:08;;;;;;;46.33;22.20;;;;;;;22.89;18.80;96654.25;5065839;28;20049;-58
2021/04/07 11:12:33;;;;;;;41.72;20.23;;;;;;;22.94;18.95;96658.84;5065657;28;20582;-57
2021/04/07 11:15:05;;;;;;;34.97;19.25;;;;;;;22.99;19.00;96659.59;5041077;28;20129;-58
2021/04/07 11:17:31;;;;;;;33.63;17.33;;;;;;;23.06;19.01;96657.34;5059670;28;20079;-57
2021/04/07 11:19:57;;;;;;;31.17;17.02;;;;;;;23.13;19.01;96659.72;5065037;28;20076;-58
2021/04/07 11:22:22;;;;;;;27.00;15.35;;;;;;;23.19;18.75;96672.19;5065872;28;20086;-56
2021/04/07 11:24:48;;;;;;;30.70;15.48;;;;;;;23.26;18.96;96666.41;5064388;28;20151;-54
2021/04/07 11:27:13;;;;;;;25.77;14.32;;;;;;;23.34;18.88;96668.47;5064893;28;20122;-56
2021/04/07 11:29:39;;;;;;;26.85;12.57;;;;;;;23.43;18.65;96663.97;5063651;28;20087;-54
2021/04/07 11:32:07;;;;;;;20.60;12.43;;;;;;;23.52;18.96;96669.56;5056633;28;20044;-55